Wedowee, Alabama
Current Conditions -  °F | °C
As of 3:53 PM on Monday 22 Dec 2014 (Local Time) from KANB Reporting Station
Light Rain Light Rain  
Wind Chill: 50°   Ceiling: 2200
Heat Index: 50°   Visibility: 4mi
Dew Point: 47°   Wind: 9mph
Humidity: 89%   Direction: 80°E
Pressure: 29.85"   Gusts: NA
Location:  33.31°N, 85.48°W
Report Text: KANB 222153Z AUTO 08008KT 4SM -RA BR SCT011 OVC022 10/08 A2985 RMK AO2 SLP112 P0003 T01000083
Loading
Personal Weather Stations






























Interactive Weather Map New forecast layout! Learn more

10-Day Weather Forecast

Advertisements
Track Severe Weather on mobile